Airfield :
LOGIN :

Register | Disclaimer

   EN    FR    IT 

 










Legend :    VFR   Marginal VFR   IFR   Intensive IFR   Very Intensive IFR
Visi :
Ceiling :
>= 8 km
>= 3000ft
5 to 8 km
1000 to 3000 ft
1500m to 5 km
500 to 1000 ft
800 to 1500m
200 to 500 ft
< 800m
< 200 ft
Symbols :   Thunderstorms  Fog  Heavy snow  Heavy precipitations  Wind > 20 kt
SIGMETs :     Misc.  Thunderstorms  Icing  Turbulence  Mountain Waves  Volcanic Ashes







- Airport Elevation : 154 ft
- IATA code : SZZ


EPSC - Szczecin Goleniow

CURRENT METAR :
  • 241230Z 31012KT 9999 FEW046 17/11 Q1016

EXPIRED METARs :
  • 241200Z 33009KT 9999 FEW036 SCT043 BKN048 17/10 Q1016
  • 241130Z 32012KT 9999 SCT029 BKN030 BKN040 16/10 Q1016
  • 241100Z 31010KT 9999 FEW029 BKN044 17/10 Q1016
  • 241030Z 29012KT 260V320 9999 FEW029 SCT033 BKN038 17/10 Q1016
  • 241000Z 30012KT 9999 SCT031 SCT039 18/09 Q1016

TAF TAF EPSC
Valid from the 24 at 12:00 until the 25 at 12:00 UTC


241130Z 2412/2512 31010KT 9999 BKN040
BECMG 2420/2422 27004KT
PROB40
TEMPO 2509/2512 BKN030CB
No reported NOTAMs for that airfield.



MET'MAP, your aeronautical weather chart ! - Copyright ORBIFLY December 2007 - Disclaimer

ORBIFLY MET'MAP TEAM :

Programming & Development : Alexandra Zaïnal
Concept & Development : Baudouin d'Aumeries
Co-Development & Prog : Marc-Olivier Méhu
Technical & hardware support : Manuel Goepfert

Contact : metmap@orbifly.com




SOURCES & CREDITS :

   NOAA